sensor_id;sensor_type;location;lat;lon;timestamp;P1;durP1;ratioP1;P2;durP2;ratioP2
57301;SDS011;43149;50.974;18.224;2023-04-12T00:00:44;6.60;;;3.50;;
57301;SDS011;43149;50.974;18.224;2023-04-12T00:05:36;15.90;;;6.50;;
57301;SDS011;43149;50.974;18.224;2023-04-12T00:15:20;5.50;;;2.50;;
57301;SDS011;43149;50.974;18.224;2023-04-12T00:25:04;8.40;;;5.00;;
57301;SDS011;43149;50.974;18.224;2023-04-12T00:34:47;7.50;;;4.00;;
57301;SDS011;43149;50.974;18.224;2023-04-12T00:44:29;2.70;;;1.80;;
57301;SDS011;43149;50.974;18.224;2023-04-12T00:54:11;10.50;;;3.40;;
57301;SDS011;43149;50.974;18.224;2023-04-12T01:03:56;9.50;;;5.30;;
57301;SDS011;43149;50.974;18.224;2023-04-12T01:14:01;23.30;;;7.80;;
57301;SDS011;43149;50.974;18.224;2023-04-12T01:33:39;12.70;;;8.10;;
57301;SDS011;43149;50.974;18.224;2023-04-12T01:43:21;25.10;;;11.30;;
57301;SDS011;43149;50.974;18.224;2023-04-12T01:53:10;6.80;;;5.60;;
57301;SDS011;43149;50.974;18.224;2023-04-12T02:02:55;1.10;;;1.10;;
57301;SDS011;43149;50.974;18.224;2023-04-12T02:07:47;29.80;;;18.70;;
57301;SDS011;43149;50.974;18.224;2023-04-12T02:17:30;9.30;;;6.80;;
57301;SDS011;43149;50.974;18.224;2023-04-12T02:27:13;11.00;;;7.10;;
57301;SDS011;43149;50.974;18.224;2023-04-12T02:36:58;56.90;;;25.90;;
57301;SDS011;43149;50.974;18.224;2023-04-12T02:46:41;50.40;;;21.70;;
57301;SDS011;43149;50.974;18.224;2023-04-12T02:49:07;39.70;;;23.10;;
57301;SDS011;43149;50.974;18.224;2023-04-12T02:58:49;13.60;;;6.80;;
57301;SDS011;43149;50.974;18.224;2023-04-12T03:08:33;17.10;;;7.20;;
57301;SDS011;43149;50.974;18.224;2023-04-12T03:25:38;10.10;;;7.90;;
57301;SDS011;43149;50.974;18.224;2023-04-12T03:28:04;29.40;;;15.50;;
57301;SDS011;43149;50.974;18.224;2023-04-12T03:37:47;4.80;;;4.30;;
57301;SDS011;43149;50.974;18.224;2023-04-12T03:47:29;13.00;;;7.40;;
57301;SDS011;43149;50.974;18.224;2023-04-12T03:57:12;19.90;;;14.10;;
57301;SDS011;43149;50.974;18.224;2023-04-12T04:06:54;14.80;;;9.90;;
57301;SDS011;43149;50.974;18.224;2023-04-12T04:16:39;9.40;;;6.10;;
57301;SDS011;43149;50.974;18.224;2023-04-12T04:26:23;13.30;;;9.10;;
57301;SDS011;43149;50.974;18.224;2023-04-12T04:36:17;5.60;;;3.60;;
57301;SDS011;43149;50.974;18.224;2023-04-12T04:38:42;28.90;;;13.80;;
57301;SDS011;43149;50.974;18.224;2023-04-12T04:48:30;29.30;;;11.10;;
57301;SDS011;43149;50.974;18.224;2023-04-12T04:58:13;22.50;;;9.20;;
57301;SDS011;43149;50.974;18.224;2023-04-12T05:07:55;13.20;;;5.60;;
57301;SDS011;43149;50.974;18.224;2023-04-12T05:17:38;14.00;;;6.20;;
57301;SDS011;43149;50.974;18.224;2023-04-12T05:27:24;10.40;;;6.10;;
57301;SDS011;43149;50.974;18.224;2023-04-12T05:37:09;7.80;;;5.40;;
57301;SDS011;43149;50.974;18.224;2023-04-12T05:46:51;8.10;;;5.20;;
57301;SDS011;43149;50.974;18.224;2023-04-12T05:56:35;8.30;;;3.00;;
57301;SDS011;43149;50.974;18.224;2023-04-12T06:06:21;5.00;;;4.10;;
57301;SDS011;43149;50.974;18.224;2023-04-12T06:23:20;23.90;;;7.80;;
57301;SDS011;43149;50.974;18.224;2023-04-12T06:33:02;8.40;;;4.70;;
57301;SDS011;43149;50.974;18.224;2023-04-12T06:42:44;9.80;;;5.40;;
57301;SDS011;43149;50.974;18.224;2023-04-12T06:52:27;11.00;;;5.80;;
57301;SDS011;43149;50.974;18.224;2023-04-12T07:02:10;26.60;;;7.70;;
57301;SDS011;43149;50.974;18.224;2023-04-12T07:11:52;11.80;;;5.70;;
57301;SDS011;43149;50.974;18.224;2023-04-12T07:21:35;31.50;;;5.80;;
57301;SDS011;43149;50.974;18.224;2023-04-12T07:31:19;10.50;;;6.80;;
57301;SDS011;43149;50.974;18.224;2023-04-12T07:41:01;13.50;;;7.20;;
57301;SDS011;43149;50.974;18.224;2023-04-12T07:50:44;4.90;;;4.50;;
57301;SDS011;43149;50.974;18.224;2023-04-12T08:00:26;9.20;;;5.90;;
57301;SDS011;43149;50.974;18.224;2023-04-12T08:10:09;4.50;;;4.10;;
57301;SDS011;43149;50.974;18.224;2023-04-12T08:19:52;21.10;;;5.90;;
57301;SDS011;43149;50.974;18.224;2023-04-12T08:29:38;6.10;;;5.50;;
57301;SDS011;43149;50.974;18.224;2023-04-12T08:39:24;6.70;;;4.40;;
57301;SDS011;43149;50.974;18.224;2023-04-12T08:49:07;4.20;;;3.70;;
57301;SDS011;43149;50.974;18.224;2023-04-12T08:58:53;2.90;;;2.60;;
57301;SDS011;43149;50.974;18.224;2023-04-12T09:01:20;7.60;;;4.20;;
57301;SDS011;43149;50.974;18.224;2023-04-12T09:11:21;5.90;;;3.60;;
57301;SDS011;43149;50.974;18.224;2023-04-12T09:21:05;5.30;;;3.40;;
57301;SDS011;43149;50.974;18.224;2023-04-12T09:30:49;3.10;;;2.30;;
57301;SDS011;43149;50.974;18.224;2023-04-12T09:40:35;3.30;;;2.80;;
57301;SDS011;43149;50.974;18.224;2023-04-12T09:50:20;8.20;;;4.10;;
57301;SDS011;43149;50.974;18.224;2023-04-12T10:00:06;4.20;;;3.10;;
57301;SDS011;43149;50.974;18.224;2023-04-12T10:09:54;5.00;;;3.20;;
57301;SDS011;43149;50.974;18.224;2023-04-12T10:19:40;2.40;;;2.30;;
57301;SDS011;43149;50.974;18.224;2023-04-12T10:29:29;4.60;;;3.00;;
57301;SDS011;43149;50.974;18.224;2023-04-12T10:39:12;2.20;;;1.80;;
57301;SDS011;43149;50.974;18.224;2023-04-12T10:48:56;3.80;;;3.50;;
57301;SDS011;43149;50.974;18.224;2023-04-12T11:08:37;0.80;;;0.50;;
57301;SDS011;43149;50.974;18.224;2023-04-12T11:18:24;4.70;;;1.10;;
57301;SDS011;43149;50.974;18.224;2023-04-12T11:28:07;6.90;;;1.80;;
57301;SDS011;43149;50.974;18.224;2023-04-12T11:37:53;2.00;;;1.70;;
57301;SDS011;43149;50.974;18.224;2023-04-12T11:47:41;2.50;;;2.30;;
57301;SDS011;43149;50.974;18.224;2023-04-12T11:57:25;1.80;;;1.60;;
57301;SDS011;43149;50.974;18.224;2023-04-12T12:07:11;0.70;;;0.70;;
57301;SDS011;43149;50.974;18.224;2023-04-12T12:16:55;2.90;;;2.20;;
57301;SDS011;43149;50.974;18.224;2023-04-12T12:26:41;1.00;;;0.90;;
57301;SDS011;43149;50.974;18.224;2023-04-12T12:36:31;3.40;;;2.00;;
57301;SDS011;43149;50.974;18.224;2023-04-12T12:46:16;0.90;;;0.90;;
57301;SDS011;43149;50.974;18.224;2023-04-12T12:56:00;0.50;;;0.50;;
57301;SDS011;43149;50.974;18.224;2023-04-12T13:05:44;0.90;;;0.90;;
57301;SDS011;43149;50.974;18.224;2023-04-12T13:15:27;0.50;;;0.50;;
57301;SDS011;43149;50.974;18.224;2023-04-12T13:25:10;1.70;;;1.10;;
57301;SDS011;43149;50.974;18.224;2023-04-12T13:34:54;2.10;;;1.00;;
57301;SDS011;43149;50.974;18.224;2023-04-12T13:44:37;1.80;;;1.00;;
57301;SDS011;43149;50.974;18.224;2023-04-12T13:54:20;1.10;;;0.90;;
57301;SDS011;43149;50.974;18.224;2023-04-12T14:04:05;0.30;;;0.30;;
57301;SDS011;43149;50.974;18.224;2023-04-12T14:13:49;2.50;;;1.20;;
57301;SDS011;43149;50.974;18.224;2023-04-12T14:23:33;10.00;;;1.80;;
57301;SDS011;43149;50.974;18.224;2023-04-12T14:33:21;2.70;;;1.90;;
57301;SDS011;43149;50.974;18.224;2023-04-12T14:43:04;2.50;;;1.20;;
57301;SDS011;43149;50.974;18.224;2023-04-12T14:52:47;0.40;;;0.40;;
57301;SDS011;43149;50.974;18.224;2023-04-12T15:02:37;1.00;;;0.80;;
57301;SDS011;43149;50.974;18.224;2023-04-12T15:12:23;0.90;;;0.70;;
57301;SDS011;43149;50.974;18.224;2023-04-12T15:22:06;6.20;;;1.30;;
57301;SDS011;43149;50.974;18.224;2023-04-12T15:31:51;7.40;;;1.00;;
57301;SDS011;43149;50.974;18.224;2023-04-12T15:41:39;1.70;;;1.20;;
57301;SDS011;43149;50.974;18.224;2023-04-12T15:51:22;7.10;;;1.40;;
57301;SDS011;43149;50.974;18.224;2023-04-12T16:01:10;2.10;;;1.90;;
57301;SDS011;43149;50.974;18.224;2023-04-12T16:10:53;4.00;;;3.30;;
57301;SDS011;43149;50.974;18.224;2023-04-12T16:20:37;2.20;;;2.00;;
57301;SDS011;43149;50.974;18.224;2023-04-12T16:30:29;45.10;;;17.50;;
57301;SDS011;43149;50.974;18.224;2023-04-12T16:40:14;3.30;;;1.20;;
57301;SDS011;43149;50.974;18.224;2023-04-12T16:49:58;16.90;;;5.60;;
57301;SDS011;43149;50.974;18.224;2023-04-12T16:54:49;4.90;;;1.70;;
57301;SDS011;43149;50.974;18.224;2023-04-12T17:04:34;1.20;;;1.10;;
57301;SDS011;43149;50.974;18.224;2023-04-12T17:14:18;1.50;;;1.40;;
57301;SDS011;43149;50.974;18.224;2023-04-12T17:21:39;4.40;;;2.30;;
57301;SDS011;43149;50.974;18.224;2023-04-12T17:31:23;4.90;;;3.00;;
57301;SDS011;43149;50.974;18.224;2023-04-12T17:41:08;4.40;;;2.00;;
57301;SDS011;43149;50.974;18.224;2023-04-12T17:50:54;6.30;;;3.80;;
57301;SDS011;43149;50.974;18.224;2023-04-12T18:07:57;9.30;;;5.10;;
57301;SDS011;43149;50.974;18.224;2023-04-12T18:17:42;34.30;;;9.60;;
57301;SDS011;43149;50.974;18.224;2023-04-12T18:27:26;10.00;;;5.30;;
57301;SDS011;43149;50.974;18.224;2023-04-12T18:34:44;13.00;;;8.60;;
57301;SDS011;43149;50.974;18.224;2023-04-12T18:44:27;9.10;;;7.10;;
57301;SDS011;43149;50.974;18.224;2023-04-12T18:54:11;14.00;;;7.30;;
57301;SDS011;43149;50.974;18.224;2023-04-12T19:03:58;15.00;;;7.50;;
57301;SDS011;43149;50.974;18.224;2023-04-12T19:13:46;14.20;;;8.50;;
57301;SDS011;43149;50.974;18.224;2023-04-12T19:23:29;8.20;;;7.40;;
57301;SDS011;43149;50.974;18.224;2023-04-12T19:33:14;13.80;;;8.50;;
57301;SDS011;43149;50.974;18.224;2023-04-12T19:42:58;29.90;;;15.70;;
57301;SDS011;43149;50.974;18.224;2023-04-12T19:52:44;12.40;;;10.00;;
57301;SDS011;43149;50.974;18.224;2023-04-12T20:02:32;18.00;;;8.90;;
57301;SDS011;43149;50.974;18.224;2023-04-12T20:12:15;19.40;;;7.60;;
57301;SDS011;43149;50.974;18.224;2023-04-12T20:22:00;22.30;;;12.90;;
57301;SDS011;43149;50.974;18.224;2023-04-12T20:31:51;12.70;;;9.50;;
57301;SDS011;43149;50.974;18.224;2023-04-12T20:41:34;23.20;;;11.20;;
57301;SDS011;43149;50.974;18.224;2023-04-12T20:51:22;13.10;;;8.20;;
57301;SDS011;43149;50.974;18.224;2023-04-12T21:01:05;18.60;;;9.40;;
57301;SDS011;43149;50.974;18.224;2023-04-12T21:10:48;13.80;;;9.20;;
57301;SDS011;43149;50.974;18.224;2023-04-12T21:20:33;13.90;;;6.90;;
57301;SDS011;43149;50.974;18.224;2023-04-12T21:30:18;5.80;;;5.30;;
57301;SDS011;43149;50.974;18.224;2023-04-12T21:40:01;20.30;;;12.40;;
57301;SDS011;43149;50.974;18.224;2023-04-12T21:49:50;30.90;;;14.90;;
57301;SDS011;43149;50.974;18.224;2023-04-12T21:59:33;22.90;;;13.30;;
57301;SDS011;43149;50.974;18.224;2023-04-12T22:09:17;38.30;;;12.60;;
57301;SDS011;43149;50.974;18.224;2023-04-12T22:19:01;29.30;;;12.40;;
57301;SDS011;43149;50.974;18.224;2023-04-12T22:28:44;23.10;;;13.20;;
57301;SDS011;43149;50.974;18.224;2023-04-12T22:38:38;31.90;;;15.90;;
57301;SDS011;43149;50.974;18.224;2023-04-12T22:48:26;30.20;;;18.90;;
57301;SDS011;43149;50.974;18.224;2023-04-12T22:58:15;20.10;;;14.50;;
57301;SDS011;43149;50.974;18.224;2023-04-12T23:08:00;39.00;;;19.40;;
57301;SDS011;43149;50.974;18.224;2023-04-12T23:17:43;13.50;;;9.30;;
57301;SDS011;43149;50.974;18.224;2023-04-12T23:27:43;35.90;;;8.20;;
57301;SDS011;43149;50.974;18.224;2023-04-12T23:37:27;31.40;;;15.20;;
57301;SDS011;43149;50.974;18.224;2023-04-12T23:47:22;33.00;;;17.50;;
57301;SDS011;43149;50.974;18.224;2023-04-12T23:57:10;23.00;;;16.20;;
